createdAt,value
2018-05-27T00:01:10.403Z,24.59
2018-05-27T00:03:38.372Z,24.52
2018-05-27T00:06:06.340Z,24.63
2018-05-27T00:08:34.208Z,24.63
2018-05-27T00:11:01.970Z,24.55
2018-05-27T00:13:29.838Z,24.32
2018-05-27T00:15:57.556Z,23.97
2018-05-27T00:18:25.367Z,24.04
2018-05-27T00:20:53.130Z,24.11
2018-05-27T00:23:20.896Z,24.19
2018-05-27T00:25:48.599Z,24.38
2018-05-27T00:28:16.321Z,24.38
2018-05-27T00:30:44.858Z,24.36
2018-05-27T00:33:12.670Z,24.17
2018-05-27T00:35:40.539Z,23.99
2018-05-27T00:38:08.198Z,23.97
2018-05-27T00:40:35.859Z,23.85
2018-05-27T00:43:03.568Z,23.94
2018-05-27T00:45:31.385Z,23.84
2018-05-27T00:47:59.154Z,23.88
2018-05-27T00:50:27.022Z,23.95
2018-05-27T00:52:54.786Z,24.08
2018-05-27T00:55:22.501Z,24.14
2018-05-27T00:57:50.320Z,24.18
2018-05-27T01:00:17.977Z,24.22
2018-05-27T01:02:45.746Z,24.20
2018-05-27T01:05:13.509Z,24.13
2018-05-27T01:07:41.212Z,24.11
2018-05-27T01:10:09.035Z,24.12
2018-05-27T01:12:36.799Z,24.16
2018-05-27T01:15:04.564Z,24.13
2018-05-27T01:17:32.279Z,24.14
2018-05-27T01:20:00.095Z,24.17
2018-05-27T01:22:27.819Z,24.12
2018-05-27T01:24:55.520Z,23.75
2018-05-27T01:27:23.284Z,23.50
2018-05-27T01:29:50.945Z,23.49
2018-05-27T01:32:18.656Z,23.55
2018-05-27T01:34:46.580Z,23.74
2018-05-27T01:37:14.346Z,23.70
2018-05-27T01:39:42.108Z,23.73
2018-05-27T01:42:09.827Z,23.68
2018-05-27T01:44:37.593Z,23.65
2018-05-27T01:47:05.401Z,23.72
2018-05-27T01:49:33.181Z,23.71
2018-05-27T01:52:01.040Z,23.66
2018-05-27T01:54:28.858Z,23.60
2018-05-27T01:56:56.673Z,23.41
2018-05-27T01:59:24.494Z,23.44
2018-05-27T02:01:52.301Z,23.42
2018-05-27T02:04:20.004Z,23.08
2018-05-27T02:06:47.824Z,22.80
2018-05-27T02:09:15.583Z,22.91
2018-05-27T02:11:43.304Z,23.20
2018-05-27T02:14:11.122Z,23.30
2018-05-27T02:16:38.837Z,23.45
2018-05-27T02:19:06.648Z,23.54
2018-05-27T02:21:34.413Z,23.61
2018-05-27T02:24:02.281Z,23.62
2018-05-27T02:26:30.007Z,23.64
2018-05-27T02:28:57.747Z,23.64
2018-05-27T02:31:25.373Z,23.59
2018-05-27T02:33:53.081Z,23.50
2018-05-27T02:36:20.792Z,23.37
2018-05-27T02:38:48.446Z,23.50
2018-05-27T02:41:16.182Z,23.48
2018-05-27T02:43:43.925Z,23.51
2018-05-27T02:46:11.742Z,23.44
2018-05-27T02:48:39.515Z,23.45
2018-05-27T02:51:07.171Z,23.29
2018-05-27T02:53:34.943Z,23.34
2018-05-27T02:56:02.812Z,23.08
2018-05-27T02:58:30.677Z,23.22
2018-05-27T03:00:58.439Z,23.23
2018-05-27T03:03:26.204Z,23.33
2018-05-27T03:05:53.927Z,23.20
2018-05-27T03:08:21.630Z,23.26
2018-05-27T03:10:49.386Z,23.32
2018-05-27T03:13:17.165Z,23.22
2018-05-27T03:15:44.928Z,23.32
2018-05-27T03:18:12.686Z,23.24
2018-05-27T03:20:40.453Z,23.09
2018-05-27T03:23:08.217Z,23.14
2018-05-27T03:25:35.981Z,23.20
2018-05-27T03:28:03.747Z,23.09
2018-05-27T03:30:31.471Z,22.86
2018-05-27T03:32:59.277Z,23.05
2018-05-27T03:35:27.041Z,23.14
2018-05-27T03:37:54.811Z,23.04
2018-05-27T03:40:22.665Z,23.05
2018-05-27T03:42:50.436Z,23.10
2018-05-27T03:45:18.303Z,23.15
2018-05-27T03:47:46.068Z,23.17
2018-05-27T03:50:13.847Z,23.03
2018-05-27T03:52:41.492Z,22.99
2018-05-27T03:55:09.217Z,23.05
2018-05-27T03:57:37.026Z,23.10
2018-05-27T04:00:04.725Z,23.01
2018-05-27T04:02:32.553Z,22.89
2018-05-27T04:05:12.196Z,23.04
2018-05-27T04:07:51.940Z,22.88
2018-05-27T04:10:19.705Z,22.56
2018-05-27T04:12:47.473Z,22.78
2018-05-27T04:15:15.200Z,22.82
2018-05-27T04:17:42.998Z,22.96
2018-05-27T04:20:10.712Z,22.92
2018-05-27T04:22:38.427Z,22.99
2018-05-27T04:25:06.190Z,22.91
2018-05-27T04:27:33.954Z,22.88
2018-05-27T04:30:01.623Z,22.74
2018-05-27T04:32:29.278Z,22.81
2018-05-27T04:34:57.042Z,22.82
2018-05-27T04:37:24.809Z,23.00
2018-05-27T04:39:52.545Z,23.08
2018-05-27T04:42:20.234Z,22.82
2018-05-27T04:44:47.990Z,22.97
2018-05-27T04:47:15.721Z,23.12
2018-05-27T04:49:43.425Z,23.07
2018-05-27T04:52:11.087Z,23.03
2018-05-27T04:54:38.852Z,23.14
2018-05-27T04:57:06.620Z,23.34
2018-05-27T04:59:34.277Z,23.50
2018-05-27T05:02:02.044Z,23.70
2018-05-27T05:04:29.809Z,23.90
2018-05-27T05:06:57.675Z,23.85
2018-05-27T05:09:25.413Z,24.13
2018-05-27T05:11:53.204Z,24.24
2018-05-27T05:14:20.907Z,24.40
2018-05-27T05:16:48.630Z,24.59
2018-05-27T05:19:16.392Z,24.68
2018-05-27T05:21:44.160Z,24.81
2018-05-27T05:24:11.821Z,24.57
2018-05-27T05:26:39.587Z,24.66
2018-05-27T05:29:07.310Z,24.82
2018-05-27T05:31:35.116Z,25.17
2018-05-27T05:34:02.819Z,25.37
2018-05-27T05:36:30.636Z,25.79
2018-05-27T05:38:58.353Z,25.86
2018-05-27T05:41:26.379Z,26.10
2018-05-27T05:43:54.147Z,26.01
2018-05-27T05:46:21.909Z,26.12
2018-05-27T05:48:49.673Z,26.24
2018-05-27T05:51:17.545Z,26.25
2018-05-27T05:53:45.305Z,26.09
2018-05-27T05:56:13.123Z,26.47
2018-05-27T05:58:40.939Z,26.16
2018-05-27T06:01:08.710Z,26.16
2018-05-27T06:03:36.357Z,26.29
2018-05-27T06:06:04.128Z,26.30
2018-05-27T06:08:31.891Z,26.41
2018-05-27T06:10:59.758Z,26.45
2018-05-27T06:13:27.469Z,27.00
2018-05-27T06:15:55.289Z,27.28
2018-05-27T06:18:22.949Z,27.80
2018-05-27T06:20:50.668Z,27.60
2018-05-27T06:23:18.481Z,27.72
2018-05-27T06:25:46.223Z,28.23
2018-05-27T06:28:14.008Z,28.27
2018-05-27T06:30:41.671Z,27.69
2018-05-27T06:33:09.537Z,27.67
2018-05-27T06:35:37.245Z,28.11
2018-05-27T06:38:04.963Z,28.52
2018-05-27T06:40:32.680Z,28.40
2018-05-27T06:43:00.391Z,28.37
2018-05-27T06:45:28.059Z,28.54
2018-05-27T06:47:55.919Z,28.38
2018-05-27T06:50:23.622Z,28.56
2018-05-27T06:52:51.344Z,28.65
2018-05-27T06:55:19.111Z,29.02
2018-05-27T06:57:46.824Z,29.26
2018-05-27T07:00:14.536Z,28.80
2018-05-27T07:02:42.198Z,29.11
2018-05-27T07:05:09.965Z,28.81
2018-05-27T07:07:37.832Z,29.42
2018-05-27T07:10:05.585Z,28.23
2018-05-27T07:12:33.360Z,28.67
2018-05-27T07:15:01.021Z,29.58
2018-05-27T07:17:28.785Z,29.89
2018-05-27T07:19:56.551Z,28.98
2018-05-27T07:22:24.423Z,28.48
2018-05-27T07:24:52.081Z,29.59
2018-05-27T07:27:19.805Z,29.38
2018-05-27T07:29:47.499Z,29.62
2018-05-27T07:32:15.294Z,30.19
2018-05-27T07:34:43.137Z,30.03
2018-05-27T07:37:10.904Z,29.85
2018-05-27T07:39:38.665Z,30.29
2018-05-27T07:42:06.341Z,30.50
2018-05-27T07:44:34.196Z,30.83
2018-05-27T07:47:01.961Z,31.38
2018-05-27T07:49:29.684Z,31.98
2018-05-27T07:51:57.489Z,30.92
2018-05-27T07:54:25.356Z,30.16
2018-05-27T07:56:53.121Z,30.88
2018-05-27T07:59:20.783Z,30.31
2018-05-27T08:01:48.547Z,30.31
2018-05-27T08:04:16.312Z,30.26
2018-05-27T08:06:44.081Z,30.01
2018-05-27T08:09:11.973Z,29.63
2018-05-27T08:11:39.665Z,28.53
2018-05-27T08:14:07.473Z,28.34
2018-05-27T08:16:35.239Z,28.54
2018-05-27T08:19:03.106Z,29.08
2018-05-27T08:21:30.971Z,29.44
2018-05-27T08:23:58.737Z,29.41
2018-05-27T08:26:26.604Z,29.75
2018-05-27T08:28:54.310Z,29.41
2018-05-27T08:31:22.134Z,30.08
2018-05-27T08:33:49.899Z,30.00
2018-05-27T08:36:17.770Z,30.77
2018-05-27T08:38:45.476Z,30.18
2018-05-27T08:41:13.299Z,30.65
2018-05-27T08:43:40.957Z,29.61
2018-05-27T08:46:08.722Z,29.20
2018-05-27T08:48:36.485Z,29.88
2018-05-27T08:51:04.250Z,30.04
2018-05-27T08:53:32.114Z,29.10
2018-05-27T08:55:59.799Z,29.90
2018-05-27T08:58:27.544Z,30.00
2018-05-27T09:00:55.305Z,29.40
2018-05-27T09:03:23.070Z,29.90
2018-05-27T09:05:50.892Z,30.03
2018-05-27T09:08:18.701Z,30.21
2018-05-27T09:10:46.527Z,30.85
2018-05-27T09:13:14.332Z,31.51
2018-05-27T09:15:42.100Z,31.34
2018-05-27T09:18:09.804Z,30.56
2018-05-27T09:20:37.626Z,30.60
2018-05-27T09:23:05.391Z,31.30
2018-05-27T09:25:33.258Z,31.94
2018-05-27T09:28:00.919Z,31.98
2018-05-27T09:30:28.581Z,32.45
2018-05-27T09:32:56.242Z,32.91
2018-05-27T09:35:23.906Z,33.29
2018-05-27T09:37:51.619Z,33.64
2018-05-27T09:40:19.435Z,32.62
2018-05-27T09:42:47.203Z,33.02
2018-05-27T09:45:15.031Z,32.36
2018-05-27T09:47:42.832Z,31.83
2018-05-27T09:50:10.698Z,30.88
2018-05-27T09:52:38.463Z,31.16
2018-05-27T09:55:06.188Z,32.35
2018-05-27T09:57:33.890Z,31.99
2018-05-27T10:00:01.660Z,31.58
2018-05-27T10:02:29.419Z,31.60
2018-05-27T10:04:57.184Z,32.42
2018-05-27T10:07:24.948Z,31.76
2018-05-27T10:09:52.755Z,32.38
2018-05-27T10:12:20.580Z,32.07
2018-05-27T10:14:48.344Z,33.24
2018-05-27T10:17:16.069Z,32.93
2018-05-27T10:19:43.874Z,32.57
2018-05-27T10:22:11.728Z,31.87
2018-05-27T10:24:39.403Z,32.51
2018-05-27T10:27:07.175Z,32.51
2018-05-27T10:29:34.829Z,34.18
2018-05-27T10:32:02.490Z,34.34
2018-05-27T10:34:30.257Z,35.03
2018-05-27T10:36:57.984Z,35.98
2018-05-27T10:39:25.682Z,36.07
2018-05-27T10:41:53.396Z,34.19
2018-05-27T10:44:21.160Z,33.28
2018-05-27T10:46:48.876Z,32.59
2018-05-27T10:49:16.639Z,33.37
2018-05-27T10:51:44.290Z,32.59
2018-05-27T10:54:11.963Z,32.44
2018-05-27T10:56:39.931Z,32.96
2018-05-27T10:59:07.594Z,33.00
2018-05-27T11:01:35.349Z,33.28
2018-05-27T11:04:03.123Z,32.74
2018-05-27T11:06:30.891Z,32.25
2018-05-27T11:08:58.652Z,32.84
2018-05-27T11:11:26.376Z,33.62
2018-05-27T11:13:54.070Z,33.15
2018-05-27T11:16:22.275Z,32.23
2018-05-27T11:18:50.045Z,31.78
2018-05-27T11:21:17.990Z,31.65
2018-05-27T11:23:45.713Z,32.45
2018-05-27T11:26:13.518Z,31.75
2018-05-27T11:28:41.388Z,30.96
2018-05-27T11:31:09.114Z,31.27
2018-05-27T11:33:36.859Z,31.54
2018-05-27T11:36:04.679Z,30.99
2018-05-27T11:38:32.441Z,31.03
2018-05-27T11:41:00.103Z,31.17
2018-05-27T11:43:27.824Z,31.98
2018-05-27T11:45:55.632Z,32.62
2018-05-27T11:48:23.459Z,32.89
2018-05-27T11:50:51.265Z,32.77
2018-05-27T11:53:19.022Z,32.54
2018-05-27T11:55:46.737Z,32.73
2018-05-27T11:58:14.454Z,32.53
2018-05-27T12:00:42.173Z,32.05
2018-05-27T12:03:09.985Z,31.89
2018-05-27T12:05:37.748Z,32.23
2018-05-27T12:08:05.614Z,32.72
2018-05-27T12:10:33.379Z,33.20
2018-05-27T12:13:01.042Z,33.11
2018-05-27T12:15:28.750Z,33.54
2018-05-27T12:17:56.571Z,33.47
2018-05-27T12:20:24.310Z,33.48
2018-05-27T12:22:52.101Z,33.61
2018-05-27T12:25:19.763Z,33.50
2018-05-27T12:27:47.626Z,33.40
2018-05-27T12:30:15.282Z,32.70
2018-05-27T12:32:43.055Z,32.42
2018-05-27T12:35:10.923Z,33.06
2018-05-27T12:37:38.789Z,33.37
2018-05-27T12:40:06.499Z,32.80
2018-05-27T12:42:34.318Z,33.31
2018-05-27T12:45:02.035Z,33.29
2018-05-27T12:47:29.849Z,32.54
2018-05-27T12:49:57.459Z,33.15
2018-05-27T12:52:25.142Z,32.93
2018-05-27T12:54:52.832Z,32.80
2018-05-27T12:57:20.548Z,33.37
2018-05-27T12:59:48.365Z,33.48
2018-05-27T13:02:16.231Z,33.23
2018-05-27T13:04:44.099Z,33.07
2018-05-27T13:07:12.680Z,33.10
2018-05-27T13:09:40.445Z,33.06
2018-05-27T13:12:08.148Z,32.94
2018-05-27T13:14:35.872Z,33.57
2018-05-27T13:17:03.793Z,33.37
2018-05-27T13:19:31.398Z,33.90
2018-05-27T13:21:59.180Z,34.03
2018-05-27T13:24:26.931Z,34.33
2018-05-27T13:26:55.002Z,34.12
2018-05-27T13:29:22.767Z,33.36
2018-05-27T13:31:50.589Z,32.67
2018-05-27T13:34:18.398Z,33.00
2018-05-27T13:36:46.161Z,33.07
2018-05-27T13:39:13.928Z,32.90
2018-05-27T13:41:41.635Z,32.54
2018-05-27T13:44:09.450Z,32.96
2018-05-27T13:46:37.168Z,32.65
2018-05-27T13:49:04.984Z,32.54
2018-05-27T13:51:32.751Z,32.68
2018-05-27T13:54:00.469Z,33.15
2018-05-27T13:56:28.282Z,33.24
2018-05-27T13:58:57.068Z,33.25
2018-05-27T14:01:24.936Z,32.82
2018-05-27T14:03:52.808Z,32.85
2018-05-27T14:06:20.505Z,32.30
2018-05-27T14:08:48.229Z,32.63
2018-05-27T14:11:15.941Z,33.12
2018-05-27T14:13:43.759Z,32.68
2018-05-27T14:16:11.475Z,31.72
2018-05-27T14:18:39.287Z,31.52
2018-05-27T14:21:07.011Z,31.58
2018-05-27T14:23:34.816Z,31.40
2018-05-27T14:26:02.477Z,31.28
2018-05-27T14:28:30.286Z,31.43
2018-05-27T14:30:58.056Z,31.55
2018-05-27T14:33:25.872Z,31.51
2018-05-27T14:35:53.589Z,31.22
2018-05-27T14:38:21.404Z,31.07
2018-05-27T14:40:49.170Z,31.11
2018-05-27T14:43:16.817Z,30.91
2018-05-27T14:45:44.594Z,30.82
2018-05-27T14:48:12.255Z,30.97
2018-05-27T14:50:40.189Z,31.19
2018-05-27T14:53:08.502Z,31.43
2018-05-27T14:55:36.371Z,31.75
2018-05-27T14:58:04.066Z,31.98
2018-05-27T15:00:31.761Z,32.03
2018-05-27T15:02:59.552Z,31.67
2018-05-27T15:05:27.325Z,30.98
2018-05-27T15:07:55.089Z,29.89
2018-05-27T15:10:22.957Z,29.46
2018-05-27T15:12:50.679Z,29.09
2018-05-27T15:15:18.383Z,28.90
2018-05-27T15:17:46.454Z,28.91
2018-05-27T15:20:14.220Z,28.80
2018-05-27T15:22:42.044Z,28.90
2018-05-27T15:25:10.070Z,28.54
2018-05-27T15:27:37.819Z,28.69
2018-05-27T15:30:05.482Z,28.72
2018-05-27T15:32:33.348Z,28.93
2018-05-27T15:35:01.079Z,28.86
2018-05-27T15:37:28.878Z,29.02
2018-05-27T15:39:56.541Z,28.99
2018-05-27T15:42:24.202Z,28.76
2018-05-27T15:44:51.968Z,28.71
2018-05-27T15:47:19.737Z,28.56
2018-05-27T15:49:47.395Z,28.44
2018-05-27T15:52:15.158Z,28.47
2018-05-27T15:54:42.923Z,28.40
2018-05-27T15:57:10.687Z,28.53
2018-05-27T15:59:38.402Z,28.51
2018-05-27T16:02:06.114Z,28.48
2018-05-27T16:04:33.774Z,28.63
2018-05-27T16:07:01.541Z,28.52
2018-05-27T16:09:29.407Z,28.15
2018-05-27T16:11:57.110Z,28.18
2018-05-27T16:14:25.027Z,28.15
2018-05-27T16:16:52.747Z,27.92
2018-05-27T16:19:20.568Z,28.14
2018-05-27T16:21:48.435Z,27.88
2018-05-27T16:24:16.201Z,28.07
2018-05-27T16:26:43.861Z,28.30
2018-05-27T16:29:11.627Z,28.41
2018-05-27T16:31:39.391Z,28.49
2018-05-27T16:34:07.156Z,27.89
2018-05-27T16:36:34.882Z,28.06
2018-05-27T16:39:02.790Z,27.97
2018-05-27T16:41:30.654Z,27.62
2018-05-27T16:43:58.418Z,27.82
2018-05-27T16:46:26.183Z,27.79
2018-05-27T16:48:53.892Z,27.58
2018-05-27T16:51:21.712Z,27.13
2018-05-27T16:53:49.465Z,26.78
2018-05-27T16:56:17.193Z,26.76
2018-05-27T16:58:44.958Z,27.15
2018-05-27T17:01:12.772Z,27.44
2018-05-27T17:03:40.638Z,27.63
2018-05-27T17:06:08.365Z,27.64
2018-05-27T17:08:36.575Z,27.60
2018-05-27T17:11:04.341Z,27.63
2018-05-27T17:13:32.162Z,27.70
2018-05-27T17:15:59.972Z,27.50
2018-05-27T17:18:27.697Z,27.19
2018-05-27T17:20:55.503Z,27.36
2018-05-27T17:23:23.376Z,27.41
2018-05-27T17:25:51.206Z,27.21
2018-05-27T17:28:19.825Z,27.22
2018-05-27T17:30:47.662Z,27.13
2018-05-27T17:33:15.338Z,26.95
2018-05-27T17:35:43.112Z,27.16
2018-05-27T17:38:10.983Z,27.24
2018-05-27T17:40:38.701Z,26.56
2018-05-27T17:43:06.508Z,25.61
2018-05-27T17:45:34.236Z,26.03
2018-05-27T17:48:14.020Z,26.25
2018-05-27T17:50:41.783Z,26.36
2018-05-27T17:53:09.550Z,26.64
2018-05-27T17:55:37.278Z,26.64
2018-05-27T17:58:04.977Z,26.69
2018-05-27T18:00:32.634Z,26.86
2018-05-27T18:03:00.300Z,27.04
2018-05-27T18:05:28.063Z,27.30
2018-05-27T18:07:57.571Z,27.20
2018-05-27T18:10:25.332Z,27.09
2018-05-27T18:12:53.100Z,26.92
2018-05-27T18:15:20.760Z,26.47
2018-05-27T18:17:48.481Z,26.44
2018-05-27T18:20:16.186Z,26.37
2018-05-27T18:22:43.805Z,26.41
2018-05-27T18:25:11.509Z,26.34
2018-05-27T18:27:39.274Z,26.36
2018-05-27T18:30:06.992Z,26.20
2018-05-27T18:32:34.906Z,25.78
2018-05-27T18:35:02.627Z,26.06
2018-05-27T18:37:30.330Z,26.18
2018-05-27T18:39:57.993Z,26.14
2018-05-27T18:42:25.657Z,26.09
2018-05-27T18:44:53.318Z,25.89
2018-05-27T18:47:21.398Z,25.79
2018-05-27T18:49:49.258Z,25.65
2018-05-27T18:52:16.968Z,25.63
2018-05-27T18:54:44.784Z,25.47
2018-05-27T18:57:12.769Z,25.50
2018-05-27T18:59:40.829Z,25.64
2018-05-27T19:02:08.491Z,25.42
2018-05-27T19:04:36.357Z,25.48
2018-05-27T19:07:04.020Z,25.71
2018-05-27T19:09:31.808Z,25.76
2018-05-27T19:12:00.289Z,25.79
2018-05-27T19:14:29.464Z,25.74
2018-05-27T19:16:57.120Z,25.63
2018-05-27T19:19:24.789Z,25.67
2018-05-27T19:21:52.552Z,25.79
2018-05-27T19:24:20.522Z,25.54
2018-05-27T19:26:48.658Z,25.70
2018-05-27T19:29:16.358Z,25.65
2018-05-27T19:31:44.123Z,25.69
2018-05-27T19:34:11.888Z,25.62
2018-05-27T19:36:39.495Z,25.58
2018-05-27T19:39:07.314Z,25.56
2018-05-27T19:41:35.033Z,25.55
2018-05-27T19:44:02.844Z,25.47
2018-05-27T19:46:30.571Z,25.67
2018-05-27T19:48:58.373Z,25.85
2018-05-27T19:51:26.137Z,26.02
2018-05-27T19:53:53.903Z,25.49
2018-05-27T19:56:21.662Z,25.24
2018-05-27T19:58:49.430Z,25.42
2018-05-27T20:01:17.195Z,25.78
2018-05-27T20:03:44.911Z,26.03
2018-05-27T20:06:12.724Z,25.94
2018-05-27T20:08:40.385Z,25.91
2018-05-27T20:11:08.047Z,26.02
2018-05-27T20:13:35.914Z,26.00
2018-05-27T20:16:04.446Z,25.90
2018-05-27T20:18:32.264Z,25.65
2018-05-27T20:20:59.982Z,25.67
2018-05-27T20:23:27.792Z,25.58
2018-05-27T20:25:55.464Z,25.49
2018-05-27T20:28:23.321Z,25.30
2018-05-27T20:30:51.139Z,25.28
2018-05-27T20:33:18.846Z,25.44
2018-05-27T20:35:46.724Z,25.36
2018-05-27T20:38:14.425Z,25.29
2018-05-27T20:40:42.142Z,25.30
2018-05-27T20:43:09.909Z,25.26
2018-05-27T20:45:37.778Z,25.20
2018-05-27T20:48:05.492Z,25.23
2018-05-27T20:50:33.304Z,25.29
2018-05-27T20:53:00.967Z,25.32
2018-05-27T20:55:28.833Z,25.18
2018-05-27T20:57:56.495Z,25.11
2018-05-27T21:00:24.302Z,25.16
2018-05-27T21:02:52.028Z,25.19
2018-05-27T21:05:19.891Z,25.22
2018-05-27T21:07:47.609Z,24.97
2018-05-27T21:10:15.527Z,24.61
2018-05-27T21:12:43.390Z,24.46
2018-05-27T21:15:11.103Z,24.17
2018-05-27T21:17:38.919Z,24.14
2018-05-27T21:20:06.795Z,24.16
2018-05-27T21:22:34.546Z,24.30
2018-05-27T21:25:02.397Z,24.57
2018-05-27T21:27:30.234Z,24.61
2018-05-27T21:29:58.048Z,24.73
2018-05-27T21:32:25.768Z,24.86
2018-05-27T21:34:53.581Z,24.74
2018-05-27T21:37:21.343Z,24.82
2018-05-27T21:39:49.108Z,24.71
2018-05-27T21:42:16.873Z,24.66
2018-05-27T21:44:44.582Z,24.59
2018-05-27T21:47:12.402Z,24.39
2018-05-27T21:49:40.268Z,24.33
2018-05-27T21:52:07.982Z,24.26
2018-05-27T21:54:35.797Z,24.21
2018-05-27T21:57:03.562Z,24.26
2018-05-27T21:59:31.224Z,24.25
2018-05-27T22:01:58.950Z,24.27
2018-05-27T22:04:26.741Z,24.31
2018-05-27T22:06:54.518Z,24.28
2018-05-27T22:09:22.382Z,24.24
2018-05-27T22:11:50.148Z,24.05
2018-05-27T22:14:17.912Z,24.10
2018-05-27T22:16:45.574Z,23.94
2018-05-27T22:19:13.340Z,23.83
2018-05-27T22:21:41.104Z,23.83
2018-05-27T22:24:08.928Z,23.74
2018-05-27T22:26:36.736Z,23.86
2018-05-27T22:29:04.560Z,23.94
2018-05-27T22:31:32.367Z,24.03
2018-05-27T22:34:00.094Z,23.99
2018-05-27T22:36:27.837Z,24.02
2018-05-27T22:38:55.558Z,24.00
2018-05-27T22:41:23.326Z,23.92
2018-05-27T22:43:51.088Z,23.76
2018-05-27T22:46:18.852Z,23.66
2018-05-27T22:48:46.571Z,23.73
2018-05-27T22:51:14.383Z,23.74
2018-05-27T22:53:42.105Z,23.80
2018-05-27T22:56:09.911Z,23.79
2018-05-27T22:58:37.613Z,23.78
2018-05-27T23:01:05.443Z,23.72
2018-05-27T23:03:33.150Z,23.82
2018-05-27T23:06:00.858Z,23.69
2018-05-27T23:08:28.529Z,23.79
2018-05-27T23:10:56.249Z,23.98
2018-05-27T23:13:23.953Z,23.94
2018-05-27T23:15:52.026Z,24.04
2018-05-27T23:18:19.754Z,23.96
2018-05-27T23:20:47.555Z,24.01
2018-05-27T23:23:15.321Z,24.00
2018-05-27T23:25:43.085Z,24.07
2018-05-27T23:28:10.745Z,23.99
2018-05-27T23:30:38.409Z,24.09
2018-05-27T23:33:06.072Z,23.95
2018-05-27T23:35:33.938Z,24.12
2018-05-27T23:38:01.702Z,24.16
2018-05-27T23:40:29.364Z,24.31
2018-05-27T23:42:57.025Z,24.29
2018-05-27T23:45:24.710Z,24.21
2018-05-27T23:47:52.555Z,24.22
2018-05-27T23:50:20.423Z,24.16
2018-05-27T23:52:48.392Z,24.27
2018-05-27T23:55:16.203Z,24.32
2018-05-27T23:57:43.920Z,24.33
